createdAt,value
2022-10-22T00:00:32.757Z,11.20
2022-10-22T00:02:59.495Z,11.20
2022-10-22T00:05:26.308Z,11.10
2022-10-22T00:07:52.989Z,11.10
2022-10-22T00:10:19.804Z,11.20
2022-10-22T00:12:46.468Z,11.20
2022-10-22T00:15:13.664Z,11.10
2022-10-22T00:17:40.711Z,11.10
2022-10-22T00:20:08.258Z,11.10
2022-10-22T00:22:35.153Z,11.10
2022-10-22T00:25:01.847Z,11.10
2022-10-22T00:27:28.545Z,11.00
2022-10-22T00:29:55.231Z,11.00
2022-10-22T00:32:21.939Z,10.90
2022-10-22T00:34:48.648Z,10.90
2022-10-22T00:37:15.416Z,10.90
2022-10-22T00:39:42.146Z,10.90
2022-10-22T00:42:17.664Z,11.00
2022-10-22T00:45:13.783Z,11.00
2022-10-22T00:47:50.075Z,11.10
2022-10-22T00:50:52.525Z,11.10
2022-10-22T00:53:21.041Z,11.10
2022-10-22T00:55:52.046Z,11.00
2022-10-22T00:58:22.951Z,11.00
2022-10-22T01:00:50.085Z,11.00
2022-10-22T01:03:16.902Z,10.90
2022-10-22T01:05:53.820Z,10.90
2022-10-22T01:08:39.812Z,10.80
2022-10-22T01:11:20.279Z,10.80
2022-10-22T01:14:09.611Z,10.80
2022-10-22T01:16:54.191Z,10.80
2022-10-22T01:19:43.249Z,10.80
2022-10-22T01:22:31.963Z,10.80
2022-10-22T01:25:08.790Z,10.80
2022-10-22T01:27:41.001Z,10.90
2022-10-22T01:30:10.821Z,10.80
2022-10-22T01:32:51.233Z,10.90
2022-10-22T01:35:26.706Z,11.00
2022-10-22T01:37:58.426Z,11.00
2022-10-22T01:40:27.203Z,11.00
2022-10-22T01:43:03.876Z,10.90
2022-10-22T01:45:36.408Z,10.80
2022-10-22T01:48:25.830Z,10.80
2022-10-22T01:50:52.516Z,10.80
2022-10-22T01:53:50.981Z,10.80
2022-10-22T01:56:54.348Z,10.80
2022-10-22T01:59:46.113Z,10.70
2022-10-22T02:02:40.143Z,10.70
2022-10-22T02:05:14.221Z,10.80
2022-10-22T02:07:49.430Z,10.70
2022-10-22T02:10:18.305Z,10.70
2022-10-22T02:12:49.768Z,10.80
2022-10-22T02:15:19.349Z,10.80
2022-10-22T02:17:47.517Z,10.80
2022-10-22T02:20:22.123Z,10.90
2022-10-22T02:22:48.988Z,10.80
2022-10-22T02:25:16.457Z,10.80
2022-10-22T02:27:51.668Z,10.70
2022-10-22T02:30:21.170Z,10.80
2022-10-22T02:32:54.178Z,10.80
2022-10-22T02:35:23.770Z,10.90
2022-10-22T02:37:52.158Z,10.80
2022-10-22T02:40:19.960Z,10.80
2022-10-22T02:42:49.420Z,10.80
2022-10-22T02:45:17.766Z,10.70
2022-10-22T02:47:44.629Z,10.70
2022-10-22T02:50:11.560Z,10.60
2022-10-22T02:52:38.740Z,10.50
2022-10-22T02:55:06.504Z,10.40
2022-10-22T02:57:33.587Z,10.40
2022-10-22T03:00:00.522Z,10.40
2022-10-22T03:02:27.341Z,10.40
2022-10-22T03:04:54.209Z,10.40
2022-10-22T03:07:20.968Z,10.30
2022-10-22T03:09:47.714Z,10.40
2022-10-22T03:12:14.657Z,10.30
2022-10-22T03:14:41.385Z,10.30
2022-10-22T03:17:08.879Z,10.40
2022-10-22T03:19:35.814Z,10.30
2022-10-22T03:22:10.162Z,10.20
2022-10-22T03:24:39.858Z,10.30
2022-10-22T03:27:06.729Z,10.40
2022-10-22T03:29:37.518Z,10.50
2022-10-22T03:32:04.315Z,10.40
2022-10-22T03:34:31.089Z,10.50
2022-10-22T03:37:00.238Z,10.70
2022-10-22T03:39:29.683Z,10.80
2022-10-22T03:41:57.582Z,10.90
2022-10-22T03:44:24.900Z,10.90
2022-10-22T03:46:51.882Z,10.70
2022-10-22T03:49:18.585Z,10.80
2022-10-22T03:51:45.360Z,10.90
2022-10-22T03:54:12.333Z,10.80
2022-10-22T03:56:39.271Z,10.70
2022-10-22T03:59:06.026Z,10.70
2022-10-22T04:01:32.851Z,10.70
2022-10-22T04:03:59.920Z,10.70
2022-10-22T04:06:27.044Z,10.90
2022-10-22T04:08:53.947Z,10.80
2022-10-22T04:11:20.784Z,10.80
2022-10-22T04:13:47.656Z,10.90
2022-10-22T04:16:17.265Z,10.80
2022-10-22T04:18:45.252Z,10.70
2022-10-22T04:21:14.055Z,10.90
2022-10-22T04:23:49.096Z,10.90
2022-10-22T04:26:17.083Z,10.90
2022-10-22T04:28:45.010Z,10.90
2022-10-22T04:31:15.844Z,10.90
2022-10-22T04:33:42.712Z,10.90
2022-10-22T04:36:12.549Z,11.10
2022-10-22T04:38:40.337Z,10.90
2022-10-22T04:41:10.105Z,10.90
2022-10-22T04:43:36.877Z,10.90
2022-10-22T04:46:04.477Z,10.80
2022-10-22T04:48:31.363Z,10.80
2022-10-22T04:50:59.071Z,10.80
2022-10-22T04:53:26.243Z,10.80
2022-10-22T04:55:53.325Z,10.80
2022-10-22T04:58:20.257Z,10.80
2022-10-22T05:00:47.046Z,10.80
2022-10-22T05:03:13.919Z,10.70
2022-10-22T05:05:40.621Z,10.70
2022-10-22T05:08:07.348Z,10.80
2022-10-22T05:10:34.132Z,10.80
2022-10-22T05:13:00.901Z,10.70
2022-10-22T05:15:27.632Z,10.70
2022-10-22T05:17:54.355Z,10.60
2022-10-22T05:20:21.126Z,10.70
2022-10-22T05:22:47.879Z,10.70
2022-10-22T05:25:14.823Z,10.60
2022-10-22T05:27:41.769Z,10.60
2022-10-22T05:30:09.096Z,10.60
2022-10-22T05:32:36.053Z,10.50
2022-10-22T05:35:02.868Z,10.50
2022-10-22T05:37:29.593Z,10.50
2022-10-22T05:40:06.542Z,10.50
2022-10-22T05:42:43.299Z,10.50
2022-10-22T05:45:10.247Z,10.50
2022-10-22T05:47:37.001Z,10.50
2022-10-22T05:50:03.960Z,10.50
2022-10-22T05:52:30.995Z,10.50
2022-10-22T05:54:57.754Z,10.50
2022-10-22T05:57:24.574Z,10.60
2022-10-22T05:59:51.362Z,10.70
2022-10-22T06:02:18.153Z,10.60
2022-10-22T06:04:45.004Z,10.70
2022-10-22T06:07:15.886Z,10.70
2022-10-22T06:09:42.935Z,10.60
2022-10-22T06:12:10.974Z,10.60
2022-10-22T06:14:37.863Z,10.70
2022-10-22T06:17:04.604Z,10.70
2022-10-22T06:19:31.469Z,10.60
2022-10-22T06:21:58.428Z,10.50
2022-10-22T06:24:25.158Z,10.50
2022-10-22T06:26:53.072Z,10.50
2022-10-22T06:29:20.314Z,10.40
2022-10-22T06:31:47.812Z,10.30
2022-10-22T06:34:15.285Z,10.40
2022-10-22T06:36:43.829Z,10.40
2022-10-22T06:39:16.757Z,10.40
2022-10-22T06:41:43.656Z,10.40
2022-10-22T06:44:16.295Z,10.20
2022-10-22T06:46:43.693Z,10.10
2022-10-22T06:49:14.148Z,10.20
2022-10-22T06:51:40.883Z,10.20
2022-10-22T06:54:08.081Z,10.10
2022-10-22T06:56:34.943Z,10.20
2022-10-22T06:59:02.084Z,10.20
2022-10-22T07:01:31.716Z,10.30
2022-10-22T07:03:59.326Z,10.40
2022-10-22T07:06:27.750Z,10.60
2022-10-22T07:08:56.369Z,10.60
2022-10-22T07:11:28.882Z,10.70
2022-10-22T07:13:58.009Z,10.80
2022-10-22T07:16:29.625Z,10.90
2022-10-22T07:18:59.320Z,11.00
2022-10-22T07:21:26.194Z,11.00
2022-10-22T07:23:53.148Z,11.20
2022-10-22T07:26:20.426Z,11.10
2022-10-22T07:28:48.219Z,11.10
2022-10-22T07:31:16.747Z,10.90
2022-10-22T07:33:43.832Z,10.90
2022-10-22T07:36:17.976Z,11.00
2022-10-22T07:38:52.971Z,11.20
2022-10-22T07:41:19.766Z,11.40
2022-10-22T07:43:46.684Z,11.80
2022-10-22T07:46:13.806Z,11.90
2022-10-22T07:48:40.705Z,12.00
2022-10-22T07:51:07.960Z,12.40
2022-10-22T07:53:34.817Z,12.30
2022-10-22T07:56:01.659Z,12.40
2022-10-22T07:58:28.850Z,12.80
2022-10-22T08:00:57.489Z,13.20
2022-10-22T08:03:24.613Z,13.30
2022-10-22T08:05:52.056Z,13.30
2022-10-22T08:08:19.286Z,13.50
2022-10-22T08:10:47.416Z,13.90
2022-10-22T08:13:14.309Z,14.30
2022-10-22T08:18:15.007Z,13.90
2022-10-22T08:20:42.588Z,14.30
2022-10-22T08:23:09.685Z,14.30
2022-10-22T08:25:36.894Z,14.40
2022-10-22T08:28:03.861Z,14.50
2022-10-22T08:30:30.808Z,14.80
2022-10-22T08:32:57.538Z,15.20
2022-10-22T08:35:24.230Z,15.10
2022-10-22T08:37:50.953Z,15.30
2022-10-22T08:43:35.546Z,16.10
2022-10-22T08:46:19.399Z,16.20
2022-10-22T08:48:54.833Z,16.80
2022-10-22T08:51:28.501Z,17.60
2022-10-22T08:54:22.435Z,18.20
2022-10-22T08:57:35.458Z,18.50
2022-10-22T09:00:11.225Z,18.80
2022-10-22T09:02:52.884Z,19.20
2022-10-22T09:05:31.468Z,19.60
2022-10-22T09:07:58.250Z,19.70
2022-10-22T09:10:29.499Z,19.90
2022-10-22T09:12:56.243Z,20.10
2022-10-22T09:15:23.001Z,20.10
2022-10-22T09:18:26.499Z,20.00
2022-10-22T09:21:19.372Z,19.90
2022-10-22T09:23:58.788Z,19.80
2022-10-22T09:26:26.564Z,19.70
2022-10-22T09:28:53.690Z,19.70
2022-10-22T09:31:20.377Z,19.60
2022-10-22T09:33:52.276Z,19.40
2022-10-22T09:36:22.714Z,19.40
2022-10-22T09:38:51.848Z,19.30
2022-10-22T09:41:26.294Z,19.30
2022-10-22T09:43:53.267Z,19.00
2022-10-22T09:46:24.476Z,18.90
2022-10-22T09:49:01.598Z,18.70
2022-10-22T09:51:40.933Z,18.80
2022-10-22T09:54:26.083Z,18.80
2022-10-22T09:57:09.850Z,18.80
2022-10-22T09:59:42.531Z,18.50
2022-10-22T10:02:19.974Z,18.40
2022-10-22T10:04:56.015Z,18.40
2022-10-22T10:07:30.133Z,18.20
2022-10-22T10:09:57.363Z,18.20
2022-10-22T10:12:49.736Z,18.20
2022-10-22T10:15:36.601Z,18.30
2022-10-22T10:18:12.365Z,18.30
2022-10-22T10:21:06.579Z,18.00
2022-10-22T10:24:09.227Z,18.00
2022-10-22T10:26:57.951Z,18.10
2022-10-22T10:29:50.835Z,18.20
2022-10-22T10:32:44.813Z,18.30
2022-10-22T10:35:20.482Z,18.30
2022-10-22T10:40:50.282Z,18.30
2022-10-22T10:43:50.253Z,18.30
2022-10-22T10:46:27.211Z,18.40
2022-10-22T10:49:07.179Z,18.30
2022-10-22T10:52:01.355Z,18.40
2022-10-22T10:54:35.486Z,18.50
2022-10-22T10:57:08.147Z,18.30
2022-10-22T11:00:09.002Z,18.30
2022-10-22T11:03:09.863Z,18.00
2022-10-22T11:05:42.576Z,17.90
2022-10-22T11:08:22.860Z,17.80
2022-10-22T11:14:05.600Z,18.00
2022-10-22T11:16:45.035Z,18.10
2022-10-22T11:19:46.125Z,18.20
2022-10-22T11:22:37.187Z,18.20
2022-10-22T11:25:12.776Z,18.10
2022-10-22T11:27:47.593Z,18.20
2022-10-22T11:30:16.319Z,18.30
2022-10-22T11:32:46.009Z,18.30
2022-10-22T11:35:24.833Z,18.20
2022-10-22T11:37:55.811Z,18.20
2022-10-22T11:40:45.278Z,18.30
2022-10-22T11:43:49.036Z,18.30
2022-10-22T11:46:29.042Z,18.40
2022-10-22T11:49:24.192Z,18.60
2022-10-22T11:51:52.325Z,18.70
2022-10-22T11:54:36.707Z,18.70
2022-10-22T11:57:15.589Z,18.80
2022-10-22T12:00:01.316Z,19.00
2022-10-22T12:02:28.011Z,18.90
2022-10-22T12:05:17.988Z,18.80
2022-10-22T12:08:00.001Z,18.60
2022-10-22T12:10:29.303Z,18.50
2022-10-22T12:12:58.499Z,18.70
2022-10-22T12:15:28.511Z,19.10
2022-10-22T12:18:05.334Z,19.40
2022-10-22T12:20:32.257Z,19.30
2022-10-22T12:22:59.988Z,19.40
2022-10-22T12:25:35.457Z,19.10
2022-10-22T12:28:02.950Z,18.90
2022-10-22T12:30:36.426Z,18.60
2022-10-22T12:33:07.219Z,18.50
2022-10-22T12:35:42.615Z,19.00
2022-10-22T12:38:20.157Z,19.20
2022-10-22T12:40:49.139Z,18.80
2022-10-22T12:43:28.832Z,18.60
2022-10-22T12:45:57.735Z,18.40
2022-10-22T12:48:28.304Z,18.20
2022-10-22T12:50:59.965Z,18.20
2022-10-22T12:53:34.890Z,18.10
2022-10-22T12:56:17.700Z,17.90
2022-10-22T12:58:51.604Z,17.80
2022-10-22T13:01:18.667Z,17.80
2022-10-22T13:03:50.855Z,17.70
2022-10-22T13:06:20.294Z,17.60
2022-10-22T13:08:57.457Z,17.60
2022-10-22T13:11:24.218Z,17.60
2022-10-22T13:13:50.887Z,17.60
2022-10-22T13:16:24.343Z,17.80
2022-10-22T13:18:52.991Z,18.00
2022-10-22T13:21:27.810Z,18.20
2022-10-22T13:23:57.826Z,18.40
2022-10-22T13:26:31.261Z,18.30
2022-10-22T13:28:58.841Z,18.10
2022-10-22T13:31:28.988Z,18.20
2022-10-22T13:33:59.191Z,18.20
2022-10-22T13:36:26.443Z,18.10
2022-10-22T13:38:53.149Z,18.00
2022-10-22T13:41:28.345Z,17.90
2022-10-22T13:43:55.557Z,17.90
2022-10-22T13:46:23.619Z,17.80
2022-10-22T13:48:53.484Z,17.80
2022-10-22T13:51:22.945Z,17.80
2022-10-22T13:53:51.313Z,17.90
2022-10-22T13:56:20.611Z,17.80
2022-10-22T13:58:48.275Z,17.70
2022-10-22T14:01:24.288Z,17.70
2022-10-22T14:03:54.315Z,17.60
2022-10-22T14:06:22.677Z,17.70
2022-10-22T14:08:56.082Z,17.70
2022-10-22T14:11:22.908Z,17.60
2022-10-22T14:13:49.711Z,17.40
2022-10-22T14:16:22.579Z,17.40
2022-10-22T14:18:49.979Z,17.40
2022-10-22T14:21:18.334Z,17.20
2022-10-22T14:23:47.158Z,17.30
2022-10-22T14:26:28.130Z,17.20
2022-10-22T14:29:11.481Z,17.20
2022-10-22T14:34:14.646Z,16.90
2022-10-22T14:36:43.945Z,16.90
2022-10-22T14:39:11.694Z,16.70
2022-10-22T14:41:38.611Z,16.50
2022-10-22T14:44:05.411Z,16.30
2022-10-22T14:46:32.296Z,16.00
2022-10-22T14:48:59.060Z,15.80
2022-10-22T14:51:25.806Z,15.80
2022-10-22T14:53:52.686Z,15.90
2022-10-22T14:56:21.486Z,16.00
2022-10-22T14:58:48.611Z,16.10
2022-10-22T15:01:15.429Z,16.20
2022-10-22T15:03:42.370Z,16.30
2022-10-22T15:06:09.155Z,16.40
2022-10-22T15:08:36.025Z,16.30
2022-10-22T15:11:08.845Z,16.20
2022-10-22T15:13:35.950Z,16.30
2022-10-22T15:16:06.352Z,16.10
2022-10-22T15:18:33.281Z,16.10
2022-10-22T15:21:03.088Z,16.10
2022-10-22T15:23:30.765Z,16.20
2022-10-22T15:25:57.614Z,16.10
2022-10-22T15:28:24.995Z,16.10
2022-10-22T15:31:01.725Z,16.10
2022-10-22T15:33:35.170Z,16.10
2022-10-22T15:36:14.272Z,16.00
2022-10-22T15:38:41.428Z,16.00
2022-10-22T15:41:16.299Z,16.00
2022-10-22T15:43:49.383Z,15.90
2022-10-22T15:46:19.583Z,15.90
2022-10-22T15:48:46.674Z,15.80
2022-10-22T15:51:16.216Z,15.80
2022-10-22T15:53:43.904Z,16.00
2022-10-22T15:56:13.985Z,15.80
2022-10-22T15:58:43.067Z,15.80
2022-10-22T16:01:13.165Z,15.80
2022-10-22T16:03:41.557Z,16.00
2022-10-22T16:06:09.536Z,15.80
2022-10-22T16:08:37.484Z,15.80
2022-10-22T16:11:04.887Z,15.80
2022-10-22T16:13:31.695Z,15.80
2022-10-22T16:16:00.563Z,15.80
2022-10-22T16:18:27.433Z,15.70
2022-10-22T16:20:56.537Z,15.70
2022-10-22T16:23:25.866Z,15.70
2022-10-22T16:25:52.686Z,15.60
2022-10-22T16:28:19.561Z,15.60
2022-10-22T16:30:46.455Z,15.60
2022-10-22T16:33:14.067Z,15.40
2022-10-22T16:35:42.292Z,15.40
2022-10-22T16:38:10.800Z,15.40
2022-10-22T16:40:39.193Z,15.30
2022-10-22T16:43:08.994Z,15.30
2022-10-22T16:45:35.801Z,15.50
2022-10-22T16:48:02.873Z,15.40
2022-10-22T16:50:29.651Z,15.40
2022-10-22T16:52:56.845Z,15.40
2022-10-22T16:55:23.868Z,15.30
2022-10-22T16:57:52.202Z,15.50
2022-10-22T17:00:20.257Z,15.30
2022-10-22T17:02:54.098Z,15.30
2022-10-22T17:05:21.257Z,15.30
2022-10-22T17:07:48.237Z,15.10
2022-10-22T17:10:16.291Z,15.10
2022-10-22T17:12:43.509Z,15.10
2022-10-22T17:15:10.706Z,15.20
2022-10-22T17:17:38.046Z,15.10
2022-10-22T17:20:06.434Z,14.90
2022-10-22T17:22:33.515Z,14.80
2022-10-22T17:25:13.876Z,14.90
2022-10-22T17:27:42.172Z,14.50
2022-10-22T17:30:12.680Z,14.40
2022-10-22T17:32:39.625Z,14.30
2022-10-22T17:35:07.908Z,14.20
2022-10-22T17:37:35.305Z,14.10
2022-10-22T17:40:02.976Z,14.00
2022-10-22T17:42:29.985Z,13.90
2022-10-22T17:44:57.764Z,13.80
2022-10-22T17:47:24.550Z,13.70
2022-10-22T17:49:51.611Z,13.60
2022-10-22T17:52:18.721Z,13.50
2022-10-22T17:54:49.473Z,13.40
2022-10-22T17:57:16.492Z,13.40
2022-10-22T17:59:43.300Z,13.40
2022-10-22T18:02:15.409Z,13.20
2022-10-22T18:04:45.688Z,13.20
2022-10-22T18:07:13.401Z,13.10
2022-10-22T18:09:40.529Z,13.10
2022-10-22T18:12:07.574Z,13.00
2022-10-22T18:14:34.480Z,13.00
2022-10-22T18:17:04.149Z,12.90
2022-10-22T18:19:31.097Z,13.10
2022-10-22T18:21:58.521Z,12.90
2022-10-22T18:24:25.383Z,13.10
2022-10-22T18:26:52.593Z,13.20
2022-10-22T18:29:20.674Z,13.20
2022-10-22T18:31:48.460Z,13.20
2022-10-22T18:34:17.692Z,13.00
2022-10-22T18:36:47.072Z,12.90
2022-10-22T18:39:17.479Z,12.90
2022-10-22T18:41:47.335Z,12.80
2022-10-22T18:44:15.177Z,12.60
2022-10-22T18:46:42.290Z,12.70
2022-10-22T18:49:13.265Z,12.60
2022-10-22T18:51:40.200Z,12.50
2022-10-22T18:54:22.264Z,12.50
2022-10-22T18:56:50.368Z,12.40
2022-10-22T18:59:19.694Z,12.50
2022-10-22T19:01:46.823Z,12.20
2022-10-22T19:04:14.208Z,12.10
2022-10-22T19:06:45.285Z,12.00
2022-10-22T19:09:16.269Z,11.90
2022-10-22T19:11:44.300Z,11.90
2022-10-22T19:14:12.412Z,11.90
2022-10-22T19:16:39.331Z,11.80
2022-10-22T19:19:07.320Z,12.00
2022-10-22T19:21:35.299Z,11.90
2022-10-22T19:24:02.525Z,11.80
2022-10-22T19:26:30.419Z,11.80
2022-10-22T19:28:58.896Z,11.70
2022-10-22T19:31:27.064Z,11.60
2022-10-22T19:33:57.191Z,11.50
2022-10-22T19:36:25.330Z,11.40
2022-10-22T19:38:52.718Z,11.30
2022-10-22T19:41:21.351Z,11.30
2022-10-22T19:43:50.912Z,11.30
2022-10-22T19:46:18.713Z,11.20
2022-10-22T19:51:21.266Z,11.20
2022-10-22T19:53:49.107Z,11.20
2022-10-22T19:56:20.404Z,11.20
2022-10-22T19:58:47.775Z,11.10
2022-10-22T20:01:16.150Z,11.10
2022-10-22T20:03:43.602Z,11.10
2022-10-22T20:06:12.128Z,10.90
2022-10-22T20:08:39.881Z,10.90
2022-10-22T20:11:15.093Z,11.00
2022-10-22T20:13:42.848Z,10.90
2022-10-22T20:16:25.466Z,10.90
2022-10-22T20:18:52.851Z,10.80
2022-10-22T20:21:20.583Z,10.80
2022-10-22T20:23:50.888Z,10.70
2022-10-22T20:26:17.616Z,10.70
2022-10-22T20:28:44.283Z,10.60
2022-10-22T20:31:17.363Z,10.60
2022-10-22T20:33:44.178Z,10.60
2022-10-22T20:36:15.761Z,10.70
2022-10-22T20:38:43.228Z,10.60
2022-10-22T20:41:19.222Z,10.50
2022-10-22T20:43:47.340Z,10.50
2022-10-22T20:46:26.795Z,10.50
2022-10-22T20:48:56.416Z,10.60
2022-10-22T20:51:23.091Z,10.50
2022-10-22T20:53:50.214Z,10.50
2022-10-22T20:56:18.072Z,10.50
2022-10-22T20:58:48.876Z,10.40
2022-10-22T21:01:24.033Z,10.40
2022-10-22T21:03:52.609Z,10.30
2022-10-22T21:06:23.496Z,10.30
2022-10-22T21:08:50.886Z,10.20
2022-10-22T21:11:18.566Z,10.20
2022-10-22T21:13:45.335Z,10.20
2022-10-22T21:16:13.910Z,10.10
2022-10-22T21:18:41.046Z,10.10
2022-10-22T21:21:09.062Z,10.10
2022-10-22T21:23:36.963Z,10.00
2022-10-22T21:26:04.383Z,10.00
2022-10-22T21:28:35.239Z,9.90
2022-10-22T21:31:04.148Z,9.90
2022-10-22T21:33:31.468Z,9.90
2022-10-22T21:35:58.244Z,9.90
2022-10-22T21:38:25.972Z,9.80
2022-10-22T21:40:52.711Z,9.80
2022-10-22T21:43:19.706Z,9.80
2022-10-22T21:45:46.670Z,9.80
2022-10-22T21:48:14.013Z,9.70
2022-10-22T21:50:42.054Z,9.80
2022-10-22T21:53:10.080Z,9.80
2022-10-22T21:55:40.532Z,9.70
2022-10-22T21:58:08.531Z,9.70
2022-10-22T22:00:36.171Z,9.70
2022-10-22T22:03:03.504Z,9.70
2022-10-22T22:05:30.178Z,9.80
2022-10-22T22:07:56.868Z,9.80
2022-10-22T22:10:26.473Z,9.90
2022-10-22T22:12:53.470Z,9.90
2022-10-22T22:15:20.546Z,10.00
2022-10-22T22:17:47.464Z,10.00
2022-10-22T22:20:14.238Z,10.00
2022-10-22T22:22:41.074Z,9.90
2022-10-22T22:25:08.352Z,9.90
2022-10-22T22:27:35.132Z,10.00
2022-10-22T22:30:01.867Z,10.00
2022-10-22T22:32:28.559Z,10.00
2022-10-22T22:34:55.243Z,9.90
2022-10-22T22:37:21.951Z,9.80
2022-10-22T22:39:48.667Z,9.80
2022-10-22T22:42:15.359Z,9.80
2022-10-22T22:44:42.026Z,9.70
2022-10-22T22:47:08.731Z,9.70
2022-10-22T22:49:36.841Z,9.90
2022-10-22T22:52:04.335Z,9.70
2022-10-22T22:54:31.097Z,9.80
2022-10-22T22:56:57.841Z,9.70
2022-10-22T22:59:24.526Z,9.70
2022-10-22T23:01:51.316Z,9.60
2022-10-22T23:04:22.837Z,9.70
2022-10-22T23:06:50.698Z,9.70
2022-10-22T23:11:47.574Z,9.60
2022-10-22T23:14:15.750Z,9.70
2022-10-22T23:16:48.140Z,9.70
2022-10-22T23:19:17.715Z,9.70
2022-10-22T23:21:47.250Z,9.70
2022-10-22T23:24:17.504Z,9.70
2022-10-22T23:26:46.396Z,9.80
2022-10-22T23:29:19.711Z,9.90
2022-10-22T23:31:47.549Z,9.90
2022-10-22T23:36:50.628Z,9.80
2022-10-22T23:39:19.835Z,9.80
2022-10-22T23:41:46.710Z,9.80
2022-10-22T23:44:13.719Z,9.80
2022-10-22T23:46:40.584Z,9.90
2022-10-22T23:49:08.763Z,9.90
2022-10-22T23:51:36.001Z,10.00
2022-10-22T23:54:05.848Z,10.00
2022-10-22T23:56:35.846Z,10.00
2022-10-22T23:59:03.847Z,10.10
